createdAt,value
2019-05-09T00:01:39.050Z,11.40
2019-05-09T00:04:08.547Z,11.60
2019-05-09T00:06:38.041Z,11.50
2019-05-09T00:09:07.606Z,11.40
2019-05-09T00:11:37.156Z,11.50
2019-05-09T00:14:06.733Z,11.50
2019-05-09T00:16:36.361Z,11.50
2019-05-09T00:19:05.925Z,11.50
2019-05-09T00:21:37.122Z,11.60
2019-05-09T00:24:06.722Z,11.50
2019-05-09T00:26:36.281Z,11.50
2019-05-09T00:29:07.490Z,11.40
2019-05-09T00:31:38.613Z,11.30
2019-05-09T00:34:09.884Z,11.30
2019-05-09T00:36:39.446Z,11.20
2019-05-09T00:39:09.029Z,11.20
2019-05-09T00:41:38.592Z,11.20
2019-05-09T00:44:13.880Z,11.30
2019-05-09T00:46:48.345Z,11.20
2019-05-09T00:49:19.548Z,11.20
2019-05-09T00:51:49.169Z,11.20
2019-05-09T00:54:18.660Z,11.30
2019-05-09T00:56:48.144Z,11.30
2019-05-09T00:59:17.724Z,11.30
2019-05-09T01:01:47.285Z,11.20
2019-05-09T01:04:16.769Z,11.10
2019-05-09T01:06:46.329Z,11.00
2019-05-09T01:09:15.894Z,11.10
2019-05-09T01:11:45.455Z,11.00
2019-05-09T01:14:15.021Z,11.10
2019-05-09T01:16:44.576Z,11.00
2019-05-09T01:19:14.309Z,11.20
2019-05-09T01:21:44.111Z,11.10
2019-05-09T01:24:14.011Z,11.10
2019-05-09T01:26:43.780Z,11.10
2019-05-09T01:29:13.879Z,11.10
2019-05-09T01:31:43.776Z,11.00
2019-05-09T01:34:21.109Z,11.00
2019-05-09T01:37:06.667Z,11.20
2019-05-09T01:39:36.977Z,11.00
2019-05-09T01:42:06.805Z,11.00
2019-05-09T01:44:36.438Z,11.00
2019-05-09T01:47:06.068Z,11.00
2019-05-09T01:49:35.654Z,11.00
2019-05-09T01:52:05.273Z,11.10
2019-05-09T01:54:36.468Z,11.00
2019-05-09T01:57:05.961Z,11.00
2019-05-09T01:59:35.534Z,10.90
2019-05-09T02:02:08.610Z,11.00
2019-05-09T02:04:37.331Z,10.90
2019-05-09T02:07:07.061Z,10.90
2019-05-09T02:09:36.633Z,10.90
2019-05-09T02:12:06.114Z,10.80
2019-05-09T02:14:37.312Z,10.90
2019-05-09T02:17:26.086Z,10.90
2019-05-09T02:19:55.644Z,10.80
2019-05-09T02:22:34.906Z,10.80
2019-05-09T02:25:13.046Z,10.90
2019-05-09T02:27:43.639Z,11.00
2019-05-09T02:30:15.390Z,10.90
2019-05-09T02:32:45.169Z,10.70
2019-05-09T02:35:15.556Z,10.70
2019-05-09T02:37:45.183Z,10.70
2019-05-09T02:40:18.509Z,10.70
2019-05-09T02:42:48.960Z,10.60
2019-05-09T02:45:19.430Z,10.70
2019-05-09T02:47:49.282Z,10.60
2019-05-09T02:50:19.701Z,10.50
2019-05-09T02:53:09.327Z,10.60
2019-05-09T02:55:38.885Z,10.70
2019-05-09T02:58:10.077Z,10.60
2019-05-09T03:01:08.277Z,10.60
2019-05-09T03:03:39.399Z,10.60
2019-05-09T03:06:09.425Z,10.50
2019-05-09T03:08:39.289Z,10.50
2019-05-09T03:11:09.975Z,10.70
2019-05-09T03:13:39.773Z,10.90
2019-05-09T03:16:19.209Z,10.80
2019-05-09T03:18:49.594Z,10.70
2019-05-09T03:21:23.925Z,10.70
2019-05-09T03:23:53.486Z,10.70
2019-05-09T03:26:24.694Z,10.70
2019-05-09T03:28:58.888Z,10.70
2019-05-09T03:31:29.822Z,10.60
2019-05-09T03:33:59.928Z,10.50
2019-05-09T03:36:29.506Z,10.50
2019-05-09T03:38:59.083Z,10.50
2019-05-09T03:41:28.669Z,10.60
2019-05-09T03:43:58.679Z,10.60
2019-05-09T03:46:38.242Z,10.50
2019-05-09T03:49:11.741Z,10.60
2019-05-09T03:51:41.307Z,10.60
2019-05-09T03:54:10.941Z,10.50
2019-05-09T03:56:47.962Z,10.50
2019-05-09T03:59:17.677Z,10.40
2019-05-09T04:01:50.167Z,10.40
2019-05-09T04:04:19.594Z,10.30
2019-05-09T04:06:49.252Z,10.30
2019-05-09T04:09:18.811Z,10.20
2019-05-09T04:11:48.648Z,10.20
2019-05-09T04:14:28.043Z,10.30
2019-05-09T04:16:57.515Z,10.30
2019-05-09T04:19:27.672Z,10.40
2019-05-09T04:21:57.705Z,10.50
2019-05-09T04:24:30.170Z,10.50
2019-05-09T04:27:01.372Z,10.50
2019-05-09T04:29:30.954Z,10.50
2019-05-09T04:32:00.513Z,10.60
2019-05-09T04:34:30.093Z,10.70
2019-05-09T04:36:59.653Z,10.80
2019-05-09T04:39:29.215Z,11.00
2019-05-09T04:42:03.492Z,10.90
2019-05-09T04:44:31.586Z,11.00
2019-05-09T04:47:03.657Z,10.80
2019-05-09T04:49:39.344Z,11.00
2019-05-09T04:52:03.503Z,10.90
2019-05-09T04:54:33.065Z,10.90
2019-05-09T04:57:02.639Z,11.00
2019-05-09T04:59:32.209Z,11.20
2019-05-09T05:02:09.373Z,11.20
2019-05-09T05:04:38.877Z,11.40
2019-05-09T05:07:08.432Z,11.70
2019-05-09T05:09:38.137Z,11.70
2019-05-09T05:12:08.543Z,11.80
2019-05-09T05:14:38.642Z,12.00
2019-05-09T05:17:11.108Z,12.20
2019-05-09T05:19:39.510Z,12.20
2019-05-09T05:22:10.691Z,12.20
2019-05-09T05:24:44.459Z,12.20
2019-05-09T05:27:14.013Z,12.10
2019-05-09T05:29:43.520Z,12.10
2019-05-09T05:32:14.711Z,12.00
2019-05-09T05:35:04.309Z,12.10
2019-05-09T05:37:33.805Z,12.20
2019-05-09T05:40:04.111Z,12.30
2019-05-09T05:42:33.614Z,12.40
2019-05-09T05:45:04.341Z,12.50
2019-05-09T05:47:38.546Z,12.30
2019-05-09T05:50:08.656Z,12.20
2019-05-09T05:52:38.218Z,12.20
2019-05-09T05:55:08.330Z,12.10
2019-05-09T05:57:38.580Z,12.10
2019-05-09T06:00:11.270Z,12.10
2019-05-09T06:02:40.840Z,12.40
2019-05-09T06:05:10.937Z,12.50
2019-05-09T06:07:40.524Z,12.60
2019-05-09T06:10:10.629Z,12.80
2019-05-09T06:12:40.193Z,12.90
2019-05-09T06:15:10.672Z,12.80
2019-05-09T06:17:40.301Z,12.90
2019-05-09T06:20:10.009Z,12.90
2019-05-09T06:22:39.569Z,12.90
2019-05-09T06:25:10.153Z,13.20
2019-05-09T06:27:42.284Z,13.50
2019-05-09T06:30:11.981Z,13.60
2019-05-09T06:32:41.509Z,13.70
2019-05-09T06:35:14.159Z,13.90
2019-05-09T06:37:43.829Z,14.10
2019-05-09T06:40:17.733Z,14.30
2019-05-09T06:42:48.854Z,14.20
2019-05-09T06:45:41.965Z,14.10
2019-05-09T06:48:12.600Z,14.20
2019-05-09T06:50:42.239Z,14.30
2019-05-09T06:53:11.882Z,14.50
2019-05-09T06:55:41.458Z,14.80
2019-05-09T06:58:15.378Z,14.90
2019-05-09T07:00:48.822Z,14.90
2019-05-09T07:03:22.157Z,15.00
2019-05-09T07:05:53.534Z,15.20
2019-05-09T07:08:24.671Z,15.40
2019-05-09T07:10:54.228Z,15.50
2019-05-09T07:13:23.792Z,15.70
2019-05-09T07:15:53.359Z,15.70
2019-05-09T07:18:22.921Z,15.80
2019-05-09T07:20:52.501Z,16.00
2019-05-09T07:23:22.134Z,15.90
2019-05-09T07:25:59.175Z,15.90
2019-05-09T07:28:28.944Z,15.90
2019-05-09T07:31:07.666Z,15.90
2019-05-09T07:33:41.914Z,15.80
2019-05-09T07:36:12.088Z,15.70
2019-05-09T07:38:41.626Z,15.70
2019-05-09T07:41:11.199Z,15.70
2019-05-09T07:43:40.819Z,15.60
2019-05-09T07:46:15.054Z,15.40
2019-05-09T07:48:48.322Z,15.20
2019-05-09T07:51:18.088Z,15.30
2019-05-09T07:53:48.301Z,15.20
2019-05-09T07:56:18.772Z,15.10
2019-05-09T07:58:48.416Z,15.20
2019-05-09T08:01:19.026Z,15.30
2019-05-09T08:03:49.172Z,15.70
2019-05-09T08:06:18.806Z,16.00
2019-05-09T08:08:48.370Z,16.00
2019-05-09T08:11:18.177Z,16.10
2019-05-09T08:13:48.674Z,16.10
2019-05-09T08:16:18.738Z,16.20
2019-05-09T08:18:48.676Z,16.30
2019-05-09T08:21:18.293Z,16.40
2019-05-09T08:23:48.533Z,16.40
2019-05-09T08:26:18.971Z,16.60
2019-05-09T08:28:48.665Z,16.90
2019-05-09T08:31:18.202Z,16.90
2019-05-09T08:33:48.534Z,16.70
2019-05-09T08:36:20.260Z,16.80
2019-05-09T08:38:49.525Z,17.00
2019-05-09T08:41:18.991Z,17.30
2019-05-09T08:43:48.577Z,17.30
2019-05-09T08:46:18.346Z,17.30
2019-05-09T08:48:48.645Z,17.40
2019-05-09T08:51:19.893Z,17.70
2019-05-09T08:53:49.465Z,17.40
2019-05-09T08:56:19.019Z,17.20
2019-05-09T08:58:48.732Z,16.90
2019-05-09T09:01:29.837Z,17.00
2019-05-09T09:03:49.486Z,16.80
2019-05-09T09:06:19.166Z,17.00
2019-05-09T09:08:48.805Z,17.50
2019-05-09T09:11:18.891Z,17.30
2019-05-09T09:13:48.689Z,17.50
2019-05-09T09:16:22.009Z,17.70
2019-05-09T09:18:49.440Z,17.10
2019-05-09T09:21:19.011Z,16.90
2019-05-09T09:23:50.783Z,16.60
2019-05-09T09:26:19.773Z,16.40
2019-05-09T09:28:49.333Z,16.40
2019-05-09T09:31:18.921Z,16.40
2019-05-09T09:33:48.563Z,16.00
2019-05-09T09:36:18.157Z,15.90
2019-05-09T09:38:48.213Z,15.80
2019-05-09T09:41:18.250Z,15.60
2019-05-09T09:43:47.996Z,15.50
2019-05-09T09:46:18.225Z,15.50
2019-05-09T09:48:48.263Z,15.20
2019-05-09T09:51:18.821Z,15.50
2019-05-09T09:53:49.119Z,15.60
2019-05-09T09:56:22.390Z,15.60
2019-05-09T09:58:51.627Z,15.60
2019-05-09T10:01:28.398Z,16.00
2019-05-09T10:04:19.108Z,16.30
2019-05-09T10:06:39.057Z,16.30
2019-05-09T10:09:09.766Z,16.80
2019-05-09T10:11:39.245Z,16.90
2019-05-09T10:14:10.635Z,16.80
2019-05-09T10:16:41.869Z,16.90
2019-05-09T10:19:29.954Z,17.10
2019-05-09T10:22:03.891Z,17.30
2019-05-09T10:24:33.457Z,17.20
2019-05-09T10:27:08.802Z,17.10
2019-05-09T10:29:38.780Z,17.00
2019-05-09T10:32:10.475Z,17.20
2019-05-09T10:34:40.247Z,17.40
2019-05-09T10:37:09.905Z,17.80
2019-05-09T10:39:39.546Z,18.10
2019-05-09T10:42:18.863Z,18.20
2019-05-09T10:44:55.386Z,18.40
2019-05-09T10:47:27.326Z,18.30
2019-05-09T10:49:58.212Z,18.00
2019-05-09T10:52:28.804Z,17.80
2019-05-09T10:54:58.365Z,17.40
2019-05-09T10:57:31.798Z,17.10
2019-05-09T10:59:59.149Z,16.90
2019-05-09T11:02:28.651Z,16.60
2019-05-09T11:04:58.247Z,16.40
2019-05-09T11:07:28.960Z,16.30
2019-05-09T11:09:59.067Z,16.20
2019-05-09T11:12:28.634Z,16.20
2019-05-09T11:14:59.441Z,16.30
2019-05-09T11:17:29.288Z,16.60
2019-05-09T11:19:59.072Z,16.80
2019-05-09T11:22:29.416Z,17.00
2019-05-09T11:24:59.300Z,17.30
2019-05-09T11:27:29.379Z,17.60
2019-05-09T11:29:59.247Z,17.70
2019-05-09T11:32:28.803Z,17.70
2019-05-09T11:34:58.445Z,17.80
2019-05-09T11:37:28.012Z,17.90
2019-05-09T11:39:58.152Z,17.90
2019-05-09T11:42:29.581Z,17.90
2019-05-09T11:44:59.165Z,17.80
2019-05-09T11:47:39.449Z,17.90
2019-05-09T11:49:59.923Z,17.70
2019-05-09T11:52:29.491Z,17.60
2019-05-09T11:54:59.131Z,17.50
2019-05-09T11:57:31.565Z,17.50
2019-05-09T11:59:59.875Z,17.40
2019-05-09T12:02:29.522Z,17.40
2019-05-09T12:04:59.075Z,17.00
2019-05-09T12:07:28.946Z,16.90
2019-05-09T12:09:59.088Z,17.20
2019-05-09T12:12:28.698Z,17.20
2019-05-09T12:14:58.294Z,17.30
2019-05-09T12:17:40.736Z,17.60
2019-05-09T12:20:09.779Z,17.80
2019-05-09T12:22:30.238Z,17.90
2019-05-09T12:24:59.825Z,17.90
2019-05-09T12:27:29.386Z,17.90
2019-05-09T12:29:58.957Z,17.90
2019-05-09T12:32:28.646Z,17.80
2019-05-09T12:34:58.219Z,17.90
2019-05-09T12:37:28.230Z,18.00
2019-05-09T12:39:58.539Z,18.10
2019-05-09T12:42:29.183Z,18.20
2019-05-09T12:44:59.208Z,18.30
2019-05-09T12:47:29.258Z,18.50
2019-05-09T12:50:02.669Z,18.50
2019-05-09T12:52:30.142Z,18.60
2019-05-09T12:54:59.703Z,18.70
2019-05-09T12:57:49.033Z,18.60
2019-05-09T13:00:19.234Z,18.70
2019-05-09T13:02:48.806Z,18.60
2019-05-09T13:05:18.380Z,18.60
2019-05-09T13:07:48.260Z,18.50
2019-05-09T13:10:19.515Z,18.40
2019-05-09T13:12:49.199Z,18.30
2019-05-09T13:15:21.219Z,18.10
2019-05-09T13:17:51.670Z,18.20
2019-05-09T13:20:21.243Z,18.40
2019-05-09T13:22:50.802Z,18.50
2019-05-09T13:25:20.357Z,18.70
2019-05-09T13:27:52.659Z,18.90
2019-05-09T13:30:21.118Z,18.80
2019-05-09T13:32:50.654Z,18.80
2019-05-09T13:35:20.278Z,18.90
2019-05-09T13:37:49.799Z,19.00
2019-05-09T13:40:19.422Z,19.00
2019-05-09T13:42:49.594Z,19.00
2019-05-09T13:45:19.256Z,19.00
2019-05-09T13:47:49.690Z,18.70
2019-05-09T13:50:19.460Z,18.90
2019-05-09T13:52:48.958Z,19.00
2019-05-09T13:55:18.539Z,19.00
2019-05-09T13:57:48.773Z,19.10
2019-05-09T14:00:18.809Z,19.00
2019-05-09T14:02:49.001Z,18.90
2019-05-09T14:05:19.323Z,18.90
2019-05-09T14:07:53.871Z,18.70
2019-05-09T14:10:20.346Z,18.60
2019-05-09T14:13:04.616Z,18.70
2019-05-09T14:15:21.201Z,18.80
2019-05-09T14:17:53.746Z,18.80
2019-05-09T14:20:22.108Z,18.60
2019-05-09T14:22:53.514Z,18.60
2019-05-09T14:25:23.169Z,18.60
2019-05-09T14:27:52.841Z,18.60
2019-05-09T14:30:22.553Z,18.40
2019-05-09T14:32:52.191Z,18.30
2019-05-09T14:35:21.987Z,18.20
2019-05-09T14:37:51.911Z,17.90
2019-05-09T14:40:21.636Z,17.60
2019-05-09T14:42:51.350Z,17.50
2019-05-09T14:45:21.066Z,17.30
2019-05-09T14:47:50.950Z,17.10
2019-05-09T14:50:20.666Z,17.00
2019-05-09T14:52:50.662Z,17.10
2019-05-09T14:55:20.963Z,17.10
2019-05-09T14:57:50.594Z,17.10
2019-05-09T15:00:20.258Z,16.80
2019-05-09T15:02:49.882Z,16.50
2019-05-09T15:05:19.521Z,16.40
2019-05-09T15:07:49.220Z,16.30
2019-05-09T15:10:19.022Z,15.90
2019-05-09T15:12:48.848Z,15.60
2019-05-09T15:15:18.791Z,15.30
2019-05-09T15:17:49.392Z,15.10
2019-05-09T15:20:19.767Z,15.00
2019-05-09T15:22:49.329Z,14.90
2019-05-09T15:25:20.627Z,15.00
2019-05-09T15:27:50.322Z,15.10
2019-05-09T15:30:20.042Z,15.20
2019-05-09T15:32:51.822Z,15.30
2019-05-09T15:35:20.798Z,15.50
2019-05-09T15:37:50.639Z,15.50
2019-05-09T15:44:08.481Z,15.80
2019-05-09T15:46:39.941Z,16.10
2019-05-09T15:49:09.507Z,16.40
2019-05-09T15:51:39.100Z,16.40
2019-05-09T15:54:08.652Z,16.10
2019-05-09T15:56:38.558Z,15.90
2019-05-09T15:59:08.430Z,15.80
2019-05-09T16:01:38.528Z,15.60
2019-05-09T16:04:08.742Z,15.40
2019-05-09T16:06:39.169Z,15.40
2019-05-09T16:09:11.949Z,15.70
2019-05-09T16:11:40.467Z,15.90
2019-05-09T16:14:10.059Z,15.90
2019-05-09T16:16:39.640Z,16.00
2019-05-09T16:19:09.201Z,15.90
2019-05-09T16:21:38.797Z,15.90
2019-05-09T16:24:08.448Z,15.70
2019-05-09T16:26:38.528Z,15.80
2019-05-09T16:29:08.661Z,16.10
2019-05-09T16:31:38.997Z,16.00
2019-05-09T16:34:09.562Z,16.00
2019-05-09T16:36:39.389Z,15.90
2019-05-09T16:39:09.225Z,15.70
2019-05-09T16:41:39.556Z,15.30
2019-05-09T16:44:09.340Z,15.00
2019-05-09T16:46:38.973Z,14.90
2019-05-09T16:49:11.710Z,14.80
2019-05-09T16:51:40.503Z,14.90
2019-05-09T16:54:10.331Z,15.00
2019-05-09T16:56:39.892Z,15.00
2019-05-09T16:59:09.469Z,15.00
2019-05-09T17:01:41.458Z,14.90
2019-05-09T17:04:11.022Z,15.10
2019-05-09T17:06:40.658Z,15.10
2019-05-09T17:09:12.364Z,15.00
2019-05-09T17:11:41.912Z,15.00
2019-05-09T17:14:11.567Z,15.00
2019-05-09T17:16:41.058Z,15.00
2019-05-09T17:19:10.792Z,14.90
2019-05-09T17:21:53.950Z,14.80
2019-05-09T17:24:23.998Z,14.70
2019-05-09T17:26:53.575Z,14.70
2019-05-09T17:29:23.479Z,14.80
2019-05-09T17:31:53.055Z,14.90
2019-05-09T17:34:22.698Z,14.90
2019-05-09T17:36:52.256Z,14.90
2019-05-09T17:39:21.764Z,14.80
2019-05-09T17:41:51.335Z,14.60
2019-05-09T17:44:40.235Z,14.70
2019-05-09T17:47:09.882Z,14.60
2019-05-09T17:49:39.497Z,14.70
2019-05-09T17:52:09.079Z,14.80
2019-05-09T17:54:38.853Z,14.90
2019-05-09T17:57:09.747Z,14.80
2019-05-09T17:59:39.455Z,14.80
2019-05-09T18:02:09.235Z,14.80
2019-05-09T18:04:38.857Z,14.60
2019-05-09T18:07:08.915Z,14.60
2019-05-09T18:09:38.498Z,14.60
2019-05-09T18:12:08.380Z,14.50
2019-05-09T18:14:38.369Z,14.40
2019-05-09T18:17:08.090Z,14.40
2019-05-09T18:19:38.186Z,14.40
2019-05-09T18:22:08.291Z,14.40
2019-05-09T18:24:38.062Z,14.30
2019-05-09T18:27:08.193Z,14.30
2019-05-09T18:29:38.333Z,14.30
2019-05-09T18:32:12.441Z,14.30
2019-05-09T18:34:42.163Z,14.30
2019-05-09T18:37:11.930Z,14.30
2019-05-09T18:39:41.429Z,14.30
2019-05-09T18:42:10.995Z,14.30
2019-05-09T18:44:40.567Z,14.30
2019-05-09T18:47:10.212Z,14.30
2019-05-09T18:49:39.874Z,14.20
2019-05-09T18:52:09.534Z,14.10
2019-05-09T18:54:39.169Z,14.10
2019-05-09T18:57:08.730Z,14.10
2019-05-09T18:59:38.309Z,14.20
2019-05-09T19:02:08.154Z,14.20
2019-05-09T19:04:37.743Z,14.20
2019-05-09T19:07:21.393Z,14.20
2019-05-09T19:09:38.522Z,14.20
2019-05-09T19:12:08.183Z,14.30
2019-05-09T19:14:37.834Z,14.30
2019-05-09T19:17:12.097Z,14.20
2019-05-09T19:19:43.324Z,14.00
2019-05-09T19:22:22.067Z,13.90
2019-05-09T19:24:44.089Z,13.90
2019-05-09T19:27:13.660Z,13.80
2019-05-09T19:29:43.169Z,13.80
2019-05-09T19:32:12.833Z,13.90
2019-05-09T19:34:42.388Z,13.80
2019-05-09T19:37:11.944Z,13.80
2019-05-09T19:39:41.529Z,13.80
2019-05-09T19:42:11.103Z,13.90
2019-05-09T19:44:40.681Z,13.90
2019-05-09T19:47:10.345Z,13.90
2019-05-09T19:49:39.839Z,13.90
2019-05-09T19:52:09.488Z,13.90
2019-05-09T19:54:38.988Z,13.90
2019-05-09T19:57:08.479Z,13.90
2019-05-09T19:59:38.056Z,13.80
2019-05-09T20:02:08.120Z,13.70
2019-05-09T20:04:37.687Z,13.60
2019-05-09T20:07:07.431Z,13.70
2019-05-09T20:09:38.660Z,13.70
2019-05-09T20:12:09.883Z,13.60
2019-05-09T20:14:41.085Z,13.60
2019-05-09T20:17:10.915Z,13.50
2019-05-09T20:19:40.496Z,13.40
2019-05-09T20:22:10.049Z,13.30
2019-05-09T20:24:39.633Z,13.30
2019-05-09T20:27:09.250Z,13.30
2019-05-09T20:30:34.188Z,13.30
2019-05-09T20:33:03.751Z,13.30
2019-05-09T20:35:33.343Z,13.30
2019-05-09T20:38:03.091Z,13.40
2019-05-09T20:40:32.858Z,13.40
2019-05-09T20:43:02.625Z,13.30
2019-05-09T20:45:32.374Z,13.30
2019-05-09T20:48:02.122Z,13.30
2019-05-09T20:50:31.896Z,13.30
2019-05-09T20:53:32.131Z,13.10
2019-05-09T20:55:51.340Z,13.00
2019-05-09T20:58:21.113Z,13.00
2019-05-09T21:00:50.900Z,13.00
2019-05-09T21:03:20.642Z,12.90
2019-05-09T21:05:50.417Z,13.00
2019-05-09T21:08:20.213Z,12.90
2019-05-09T21:10:50.122Z,12.80
2019-05-09T21:13:19.845Z,12.90
2019-05-09T21:15:53.321Z,12.90
2019-05-09T21:18:23.201Z,13.00
2019-05-09T21:20:53.307Z,12.90
2019-05-09T21:23:25.018Z,13.10
2019-05-09T21:25:54.399Z,13.10
2019-05-09T21:28:24.166Z,13.20
2019-05-09T21:30:54.006Z,13.20
2019-05-09T21:33:23.843Z,13.20
2019-05-09T21:35:53.442Z,13.30
2019-05-09T21:38:23.149Z,13.20
2019-05-09T21:40:52.703Z,13.20
2019-05-09T21:43:22.290Z,13.10
2019-05-09T21:45:51.858Z,12.90
2019-05-09T21:48:21.441Z,12.90
2019-05-09T21:50:51.014Z,12.90
2019-05-09T21:53:20.570Z,13.00
2019-05-09T21:55:50.141Z,12.90
2019-05-09T21:58:19.776Z,12.90
2019-05-09T22:00:52.604Z,12.70
2019-05-09T22:03:22.224Z,12.70
2019-05-09T22:05:51.793Z,12.80
2019-05-09T22:08:21.372Z,12.70
2019-05-09T22:10:51.000Z,12.70
2019-05-09T22:13:20.681Z,12.80
2019-05-09T22:15:50.233Z,12.80
2019-05-09T22:18:19.963Z,12.80
2019-05-09T22:20:49.538Z,12.70
2019-05-09T22:23:19.113Z,12.70
2019-05-09T22:25:48.672Z,12.60
2019-05-09T22:28:18.581Z,12.60
2019-05-09T22:30:48.482Z,12.60
2019-05-09T22:33:18.617Z,12.70
2019-05-09T22:35:48.170Z,12.70
2019-05-09T22:38:17.747Z,12.70
2019-05-09T22:40:47.585Z,12.70
2019-05-09T22:43:17.177Z,12.70
2019-05-09T22:45:46.878Z,12.70
2019-05-09T22:48:16.447Z,12.70
2019-05-09T22:50:46.066Z,12.70
2019-05-09T22:53:17.117Z,12.80
2019-05-09T22:55:46.689Z,12.70
2019-05-09T22:58:16.378Z,12.70
2019-05-09T23:00:45.965Z,12.70
2019-05-09T23:03:15.547Z,12.80
2019-05-09T23:05:45.136Z,12.80
2019-05-09T23:08:14.768Z,12.80
2019-05-09T23:10:44.322Z,12.70
2019-05-09T23:13:13.919Z,12.70
2019-05-09T23:15:43.479Z,12.60
2019-05-09T23:18:13.073Z,12.70
2019-05-09T23:20:47.229Z,12.70
2019-05-09T23:23:27.736Z,12.70
2019-05-09T23:25:57.944Z,12.70
2019-05-09T23:28:28.005Z,12.70
2019-05-09T23:30:59.224Z,12.70
2019-05-09T23:33:30.431Z,12.80
2019-05-09T23:35:59.989Z,12.80
2019-05-09T23:38:29.572Z,12.80
2019-05-09T23:40:59.154Z,12.70
2019-05-09T23:43:28.724Z,12.70
2019-05-09T23:45:58.289Z,12.60
2019-05-09T23:48:27.860Z,12.70
2019-05-09T23:50:57.433Z,12.70
2019-05-09T23:53:31.717Z,12.80
2019-05-09T23:56:19.404Z,12.80
2019-05-09T23:59:06.827Z,12.80
